Provincetown, MA

7:27 PM EDT on July 23, 2017 (GMT -0400)
Provincetown Municipal

Weather History for KPVC - December, 2013

Change the Weather History Date:

Sunday, December 29, 2013

  Actual Average Record
Temperature  
Mean Temperature 42 °F -  
Max Temperature 48 °F 38 °F 58 °F (1951)
Min Temperature 37 °F 28 °F 19 °F (1950)
Degree Days  
Heating Degree Days 22    
Moisture  
Dew Point 39 °F    
Average Humidity 87    
Maximum Humidity 100    
Minimum Humidity 75    
Precipitation  
Precipitation 0.17 in - - ()
Sea Level Pressure  
Sea Level Pressure 29.81 in    
Wind  
Wind Speed 9 mph (SSW)    
Max Wind Speed 34 mph    
Max Gust Speed 45 mph    
Visibility 8 miles    
Events      
Averages and records for this station are not official NWS values.
T = Trace of Precipitation, MM = Missing Value Source: NWS Daily Summary

Daily Weather History Graph

Daily Weather History Graph

Search for Another Location

Airport or City:

Trip Planner

Search our weather history database for the weather conditions in past years. The results will help you decide how hot, cold, wet, or windy it might be!

Date:

Astronomy

Dec. 29, 2013 Rise Set
Actual Time 7:08 AM EST 4:17 PM EST
Civil Twilight 6:37 AM EST 4:49 PM EST
Nautical Twilight 6:01 AM EST 5:24 PM EST
Astronomical Twilight 5:27 AM EST 5:58 PM EST
Moon 3:47 AM EST (12/29) 1:54 PM EST (12/29)
Length of Visible Light 10h 12m
Length of Day
9h 08m
Waning Crescent, 11% of the Moon is Illuminated
Dec 29
Waning Crescent
Jan 1
New
Jan 7
First Quarter
Jan 15
Full
Jan 24
Last Quarter

Hourly Weather History & Observations

Time (EST) Temp. Windchill Dew Point Humidity Pressure Visibility Wind Dir Wind Speed Gust Speed Precip Events Conditions
12:15 AM 39.2 °F 34.2 °F 32.0 °F 75% 30.05 in 10.0 mi SW 6.9 mph - N/A   Clear
12:35 AM 39.2 °F 35.0 °F 33.8 °F 81% 30.04 in 10.0 mi SW 5.8 mph - 0.02 in   Clear
12:55 AM 37.4 °F 32.1 °F 33.8 °F 87% 30.04 in 10.0 mi SW 6.9 mph - 0.02 in   Clear
1:15 AM 39.2 °F 33.0 °F 33.8 °F 81% 30.04 in 10.0 mi SSW 9.2 mph - N/A   Clear
1:35 AM 39.2 °F 33.0 °F 35.6 °F 87% 30.04 in 10.0 mi SW 9.2 mph - N/A   Clear
1:55 AM 39.2 °F 33.0 °F 35.6 °F 87% 30.04 in 10.0 mi SW 9.2 mph - N/A   Clear
2:15 AM 39.2 °F 33.0 °F 35.6 °F 87% 30.05 in 10.0 mi SW 9.2 mph - N/A   Clear
2:35 AM 39.2 °F 33.0 °F 35.6 °F 87% 30.05 in 10.0 mi SSW 9.2 mph - N/A   Clear
2:55 AM 39.2 °F 34.2 °F 35.6 °F 87% 30.05 in 10.0 mi SW 6.9 mph - N/A   Clear
3:15 AM 39.2 °F 33.6 °F 35.6 °F 87% 30.05 in 10.0 mi SW 8.1 mph - N/A   Clear
3:35 AM 39.2 °F 33.6 °F 35.6 °F 87% 30.04 in 10.0 mi SW 8.1 mph - N/A   Clear
3:55 AM 39.2 °F 33.6 °F 35.6 °F 87% 30.03 in 10.0 mi SW 8.1 mph - N/A   Clear
4:15 AM 39.2 °F 33.0 °F 33.8 °F 81% 30.03 in 10.0 mi SW 9.2 mph - N/A   Clear
4:35 AM 39.2 °F 33.6 °F 35.6 °F 87% 30.03 in 10.0 mi SW 8.1 mph - N/A   Clear
4:55 AM 39.2 °F 33.6 °F 35.6 °F 87% 30.03 in 10.0 mi SW 8.1 mph - 0.01 in   Clear
5:15 AM 39.2 °F 35.0 °F 35.6 °F 87% 30.03 in 10.0 mi SW 5.8 mph - 0.01 in   Clear
5:35 AM 39.2 °F 35.0 °F 35.6 °F 87% 30.02 in 10.0 mi SSW 5.8 mph - 0.02 in   Clear
5:55 AM 39.2 °F 35.0 °F 35.6 °F 87% 30.01 in 10.0 mi SW 5.8 mph - 0.02 in   Clear
6:15 AM 39.2 °F 33.6 °F 33.8 °F 81% 30.02 in 10.0 mi SW 8.1 mph - 0.01 in   Clear
6:35 AM 39.2 °F 34.2 °F 35.6 °F 87% 30.03 in 10.0 mi SSW 6.9 mph - 0.01 in   Clear
6:55 AM 39.2 °F 33.6 °F 33.8 °F 81% 30.03 in 10.0 mi SSW 8.1 mph - 0.01 in   Clear
7:15 AM 39.2 °F 34.2 °F 35.6 °F 87% 30.02 in 10.0 mi South 6.9 mph - N/A   Clear
7:35 AM 41.0 °F 36.4 °F 35.6 °F 81% 30.02 in 10.0 mi South 6.9 mph - 0.01 in   Clear
7:55 AM 41.0 °F 38.0 °F 37.4 °F 87% 30.02 in 10.0 mi SSW 4.6 mph - 0.01 in   Clear
8:15 AM 42.8 °F 38.0 °F 37.4 °F 81% 30.02 in 10.0 mi SSW 8.1 mph - N/A   Clear
8:35 AM 42.8 °F 36.6 °F 37.4 °F 81% 30.03 in 10.0 mi SSW 11.5 mph - N/A   Clear
8:55 AM 42.8 °F 38.0 °F 37.4 °F 81% 30.03 in 10.0 mi SSW 8.1 mph - N/A   Clear
9:15 AM 42.8 °F 38.0 °F 37.4 °F 81% 30.03 in 10.0 mi SW 8.1 mph - 0.01 in   Clear
9:35 AM 44.6 °F 39.2 °F 37.4 °F 76% 30.03 in 10.0 mi SW 10.4 mph - 0.01 in   Partly Cloudy
9:55 AM 44.6 °F 39.7 °F 37.4 °F 76% 30.03 in 10.0 mi SW 9.2 mph - 0.01 in   Partly Cloudy
10:15 AM 44.6 °F 39.2 °F 37.4 °F 76% 30.02 in 10.0 mi SW 10.4 mph - N/A   Scattered Clouds
10:35 AM 44.6 °F 39.2 °F 37.4 °F 76% 30.00 in 10.0 mi SW 10.4 mph - N/A   Scattered Clouds
10:55 AM 44.6 °F 39.2 °F 37.4 °F 76% 29.98 in 10.0 mi SSW 10.4 mph - N/A   Partly Cloudy
11:15 AM 44.6 °F 39.7 °F 37.4 °F 76% 29.96 in 10.0 mi SW 9.2 mph - 0.01 in   Partly Cloudy
11:35 AM 44.6 °F 39.2 °F 37.4 °F 76% 29.95 in 10.0 mi SW 10.4 mph - 0.01 in   Partly Cloudy
11:55 AM 44.6 °F 39.2 °F 39.2 °F 81% 29.93 in 10.0 mi South 10.4 mph - 0.02 in   Scattered Clouds
12:15 PM 44.6 °F 40.2 °F 37.4 °F 76% 29.92 in 10.0 mi South 8.1 mph - N/A   Partly Cloudy
12:35 PM 44.6 °F 39.2 °F 39.2 °F 81% 29.92 in 10.0 mi SSW 10.4 mph - N/A   Scattered Clouds
12:55 PM 44.6 °F 38.8 °F 39.2 °F 81% 29.92 in 10.0 mi SSW 11.5 mph - N/A   Overcast
1:15 PM 44.6 °F 38.4 °F 41.0 °F 87% 29.91 in 10.0 mi SSW 12.7 mph - 0.01 in   Overcast
1:35 PM 44.6 °F 40.2 °F 41.0 °F 87% 29.90 in 10.0 mi SSW 8.1 mph - 0.01 in   Overcast
1:55 PM 44.6 °F 40.2 °F 41.0 °F 87% 29.89 in 10.0 mi SW 8.1 mph - 0.01 in   Overcast
2:15 PM 44.6 °F 39.7 °F 39.2 °F 81% 29.88 in 10.0 mi SSW 9.2 mph - N/A   Overcast
2:35 PM 44.6 °F 40.2 °F 41.0 °F 87% 29.87 in 9.0 mi South 8.1 mph - 0.01 in   Overcast
2:55 PM 42.8 °F 38.6 °F 39.2 °F 87% 29.86 in 8.0 mi South 6.9 mph - 0.01 in   Overcast
3:15 PM 42.8 °F 38.6 °F 41.0 °F 93% 29.86 in 5.0 mi South 6.9 mph - N/A   Overcast
3:35 PM 42.8 °F 38.6 °F 39.2 °F 87% 29.84 in 5.0 mi South 6.9 mph - N/A   Overcast
3:55 PM 42.8 °F 38.6 °F 39.2 °F 87% 29.81 in 5.0 mi ESE 6.9 mph - N/A   Overcast
4:15 PM 41.0 °F 36.4 °F 39.2 °F 93% 29.78 in 3.0 mi SE 6.9 mph - N/A   Overcast
4:35 PM 42.8 °F 38.6 °F 41.0 °F 93% 29.75 in 6.0 mi ESE 6.9 mph - 0.01 in   Overcast
4:55 PM 42.8 °F 37.5 °F 41.0 °F 93% 29.72 in 6.0 mi ESE 9.2 mph - 0.01 in   Overcast
5:15 PM 42.8 °F 38.0 °F 42.8 °F 100% 29.69 in 7.0 mi East 8.1 mph - N/A   Overcast
5:35 PM 42.8 °F 36.6 °F 41.0 °F 93% 29.68 in 6.0 mi ESE 11.5 mph - N/A   Overcast
5:55 PM 42.8 °F 36.6 °F 42.8 °F 100% 29.63 in 5.0 mi East 11.5 mph - N/A   Overcast
6:15 PM 44.6 °F 37.2 °F 42.8 °F 93% 29.58 in 5.0 mi East 17.3 mph 20.7 mph N/A   Overcast
6:35 PM 44.6 °F 36.9 °F 42.8 °F 93% 29.54 in 3.0 mi ESE 18.4 mph 25.3 mph N/A   Overcast
6:55 PM 44.6 °F 37.4 °F 41.0 °F 87% 29.51 in 4.0 mi ESE 16.1 mph 27.6 mph N/A   Overcast
7:15 PM 44.6 °F 35.9 °F 42.8 °F 93% 29.46 in 3.0 mi East 23.0 mph 32.2 mph N/A   Overcast
7:35 PM 44.6 °F 36.6 °F 42.8 °F 93% 29.42 in 3.0 mi East 19.6 mph 32.2 mph N/A   Overcast
7:55 PM 44.6 °F 36.9 °F 42.8 °F 93% 29.39 in 4.0 mi SE 18.4 mph 29.9 mph N/A   Overcast
8:15 PM 46.4 °F 41.1 °F 46.4 °F 100% 29.36 in 4.0 mi SE 11.5 mph 31.1 mph N/A   Overcast
8:35 PM 48.2 °F - 48.2 °F 100% 29.36 in 6.0 mi SW 9.2 mph 16.1 mph N/A   Overcast
8:55 PM 48.2 °F - 46.4 °F 93% 29.34 in 4.0 mi West 6.9 mph - N/A   Overcast
9:15 PM 48.2 °F - 46.4 °F 93% 29.31 in 5.0 mi Calm Calm - 0.01 in   Overcast
9:35 PM 46.4 °F 42.9 °F 44.6 °F 93% 29.30 in 4.0 mi North 6.9 mph - 0.02 in   Overcast
9:55 PM 44.6 °F 38.4 °F 44.6 °F 100% 29.29 in 3.0 mi North 12.7 mph 18.4 mph 0.02 in   Overcast
10:15 PM 44.6 °F 38.4 °F 42.8 °F 93% 29.29 in 5.0 mi North 12.7 mph 19.6 mph N/A   Overcast
10:35 PM 44.6 °F 39.7 °F 42.8 °F 93% 29.30 in 10.0 mi North 9.2 mph - 0.01 in   Mostly Cloudy
10:55 PM 44.6 °F 38.1 °F 42.8 °F 93% 29.32 in 5.0 mi NNW 13.8 mph - 0.01 in   Overcast
11:15 PM 44.6 °F 35.9 °F 42.8 °F 93% 29.36 in 3.0 mi NNW 23.0 mph 31.1 mph N/A   Overcast
11:35 PM 42.8 °F 31.6 °F 39.2 °F 87% 29.38 in 5.0 mi North 34.5 mph 44.9 mph 0.01 in   Overcast
11:55 PM 42.8 °F 31.9 °F 39.2 °F 87% 29.42 in 8.0 mi North 32.2 mph 40.3 mph 0.01 in   Overcast